Time;durP1;ratioP1;P1;durP2;ratioP2;P2;SDS_P1;SDS_P2;PMS_P1;PMS_P2;Temp;Humidity;BMP_temperature;BMP_pressure;BME280_temperature;BME280_humidity;BME280_pressure;Samples;Min_cycle;Max_cycle;Signal;HPM_P1;HPM_P2
2021/06/30 00:03:07;;;;;;;3.30;3.00;;;;;;;19.32;82.97;99237.94;10499751;28;19950;-71
2021/06/30 00:08:13;;;;;;;3.17;2.53;;;;;;;19.16;82.91;99249.81;10499252;28;20505;-73
2021/06/30 00:13:21;;;;;;;;;;;;;;;18.95;83.12;99251.53;10499198;28;20048;-70
2021/06/30 00:18:28;;;;;;;2.45;1.80;;;;;;;18.80;82.66;99276.69;10496960;28;19920;-72
2021/06/30 00:23:35;;;;;;;2.45;1.60;;;;;;;18.66;82.50;99261.75;10481626;28;20047;-72
2021/06/30 00:28:41;;;;;;;2.10;1.40;;;;;;;18.54;83.06;99255.56;10499277;28;20045;-73
2021/06/30 00:33:49;;;;;;;2.83;1.52;;;;;;;18.38;82.78;99257.72;10498339;28;20401;-72
2021/06/30 00:38:55;;;;;;;1.75;1.20;;;;;;;18.23;82.53;99262.38;10498517;28;20036;-72
2021/06/30 00:44:02;;;;;;;2.00;1.20;;;;;;;18.11;82.69;99276.63;10499706;28;20047;-71
2021/06/30 00:49:09;;;;;;;1.85;1.20;;;;;;;18.04;82.36;99281.53;10498201;28;20044;-71
2021/06/30 00:54:16;;;;;;;10.45;1.42;;;;;;;18.00;82.40;99281.88;10498967;28;20041;-71
2021/06/30 00:59:22;;;;;;;3.25;1.17;;;;;;;17.89;82.83;99275.56;10498503;28;20052;-71
2021/06/30 01:04:29;;;;;;;1.67;1.13;;;;;;;17.85;82.66;99266.09;10498926;28;20441;-72
2021/06/30 01:09:36;;;;;;;1.45;1.10;;;;;;;17.77;81.98;99251.69;10497972;28;20052;-71
2021/06/30 01:14:42;;;;;;;2.03;1.10;;;;;;;17.66;83.46;99244.44;10498767;28;20041;-72
2021/06/30 01:19:49;;;;;;;1.38;1.10;;;;;;;17.64;83.40;99225.13;10498122;28;20412;-73
2021/06/30 01:24:55;;;;;;;6.30;1.20;;;;;;;17.53;82.89;99230.34;10498048;28;20040;-72
2021/06/30 01:30:05;;;;;;;1.85;1.25;;;;;;;17.35;83.26;99236.09;10503436;28;20044;-72
2021/06/30 01:35:23;;;;;;;1.73;1.23;;;;;;;17.32;83.60;99238.94;10505347;28;20494;-72
2021/06/30 01:40:30;;;;;;;3.22;1.40;;;;;;;17.27;83.85;99245.56;10505016;28;20048;-72
2021/06/30 01:45:37;;;;;;;4.50;1.30;;;;;;;17.19;84.03;99251.41;10504684;28;20086;-73
2021/06/30 01:50:44;;;;;;;1.58;1.48;;;;;;;17.22;84.60;99251.19;10504459;28;20063;-71
2021/06/30 01:55:50;;;;;;;1.50;1.20;;;;;;;17.18;84.44;99257.69;10502706;28;20037;-71
2021/06/30 02:00:57;;;;;;;1.30;1.20;;;;;;;17.18;84.11;99249.72;10504562;28;20040;-71
2021/06/30 02:06:03;;;;;;;1.80;1.13;;;;;;;17.20;83.70;99242.47;10486262;28;20036;-70
2021/06/30 02:11:10;;;;;;;2.97;1.20;;;;;;;17.15;83.64;99237.50;10503923;28;20041;-72
2021/06/30 02:16:17;;;;;;;1.77;1.10;;;;;;;17.11;84.00;99233.34;10487399;28;20047;-71
2021/06/30 02:21:23;;;;;;;;;;;;;;;17.04;83.94;99224.13;10487901;28;20418;-72
2021/06/30 02:26:30;;;;;;;1.25;1.10;;;;;;;17.05;83.81;99220.53;10503096;28;19926;-72
2021/06/30 02:31:36;;;;;;;2.63;1.20;;;;;;;16.96;84.16;99223.84;10503255;28;20037;-72
2021/06/30 02:36:43;;;;;;;1.30;1.20;;;;;;;16.90;83.89;99222.44;10485176;28;20045;-71
2021/06/30 02:41:49;;;;;;;1.50;1.40;;;;;;;16.84;84.79;99214.09;10485721;28;20453;-74
2021/06/30 02:46:56;;;;;;;2.40;1.30;;;;;;;16.85;84.41;99226.41;10503351;28;20414;-72
2021/06/30 02:52:03;;;;;;;3.13;1.30;;;;;;;16.87;84.46;99225.34;10505243;28;20152;-73
2021/06/30 02:57:09;;;;;;;1.55;1.30;;;;;;;16.83;84.97;99241.59;10505067;28;20078;-72
2021/06/30 03:02:16;;;;;;;1.73;1.48;;;;;;;16.80;84.95;99247.09;10505504;28;20032;-72
2021/06/30 03:07:22;;;;;;;1.88;1.50;;;;;;;16.86;84.23;99254.63;10503569;28;20037;-72
2021/06/30 03:12:29;;;;;;;2.40;1.55;;;;;;;16.83;84.98;99255.72;10503908;28;20401;-72
2021/06/30 03:17:36;;;;;;;1.60;1.35;;;;;;;16.90;83.92;99272.03;10504511;28;20028;-72
2021/06/30 03:22:44;;;;;;;1.90;1.30;;;;;;;16.92;83.59;99272.81;10503406;28;20500;-72
2021/06/30 03:27:50;;;;;;;1.60;1.20;;;;;;;16.90;83.46;99275.53;10486106;28;20047;-73
2021/06/30 03:32:58;;;;;;;2.55;1.45;;;;;;;16.81;84.08;99273.53;10502766;28;20074;-72
2021/06/30 03:38:04;;;;;;;1.52;1.42;;;;;;;16.79;83.38;99279.91;10484907;28;20074;-71
2021/06/30 03:43:11;;;;;;;1.73;1.50;;;;;;;16.79;83.14;99271.97;10502246;28;20040;-70
2021/06/30 03:48:17;;;;;;;3.95;1.50;;;;;;;16.63;84.43;99278.28;10501858;28;20064;-71
2021/06/30 03:53:24;;;;;;;1.73;1.60;;;;;;;16.73;83.64;99275.03;10500833;28;20051;-71
2021/06/30 03:58:31;;;;;;;1.85;1.55;;;;;;;16.69;83.39;99269.06;10501097;28;20046;-72
2021/06/30 04:03:37;;;;;;;2.92;1.60;;;;;;;16.64;83.22;99287.09;10500715;28;20037;-71
2021/06/30 04:08:44;;;;;;;1.73;1.58;;;;;;;16.58;83.24;99287.50;10501729;28;20047;-71
2021/06/30 04:13:50;;;;;;;2.05;1.52;;;;;;;16.54;83.94;99286.03;10483187;28;20101;-71
2021/06/30 04:18:57;;;;;;;1.90;1.80;;;;;;;16.53;83.48;99281.69;10502650;28;20390;-71
2021/06/30 04:24:06;;;;;;;2.05;1.60;;;;;;;16.50;83.42;99282.72;10500983;28;20032;-72
2021/06/30 04:29:13;;;;;;;1.75;1.65;;;;;;;16.51;83.59;99280.91;10501482;28;20068;-72
2021/06/30 04:34:20;;;;;;;3.25;1.52;;;;;;;16.44;83.00;99282.31;10501151;28;20498;-72
2021/06/30 04:39:27;;;;;;;2.97;2.00;;;;;;;16.47;83.31;99280.31;10482551;28;20045;-72
2021/06/30 04:44:34;;;;;;;2.90;1.52;;;;;;;16.48;82.23;99281.16;10500220;28;20128;-71
2021/06/30 04:49:40;;;;;;;3.33;1.90;;;;;;;16.46;83.62;99277.72;10483542;28;20049;-72
2021/06/30 04:54:47;;;;;;;2.70;1.73;;;;;;;16.51;81.40;99271.19;10499966;28;20127;-71
2021/06/30 04:59:53;;;;;;;2.72;1.67;;;;;;;16.55;81.59;99277.09;10497923;28;20053;-71
2021/06/30 05:05:01;;;;;;;3.83;1.92;;;;;;;16.52;82.15;99287.94;10507236;28;20405;-72
2021/06/30 05:10:06;;;;;;;3.10;2.00;;;;;;;16.60;83.44;99289.13;10508424;28;20459;-72
2021/06/30 05:15:13;;;;;;;2.35;1.92;;;;;;;16.42;83.78;99298.31;10508508;28;20045;-71
2021/06/30 05:20:19;;;;;;;2.70;2.03;;;;;;;16.31;82.74;99300.84;10508064;28;20051;-71
2021/06/30 05:25:26;;;;;;;4.53;3.25;;;;;;;16.43;83.89;99305.34;10508635;28;20060;-72
2021/06/30 05:30:33;;;;;;;2.47;2.15;;;;;;;16.55;82.97;99316.91;10507520;28;20049;-71
2021/06/30 05:35:39;;;;;;;2.28;1.70;;;;;;;16.59;82.76;99305.97;10507989;28;20516;-70
2021/06/30 05:40:46;;;;;;;4.53;2.05;;;;;;;16.64;82.62;99309.19;10506913;28;20523;-71
2021/06/30 05:45:52;;;;;;;2.75;1.60;;;;;;;16.83;80.66;99315.91;10507983;28;20044;-72
2021/06/30 05:50:59;;;;;;;2.80;1.65;;;;;;;16.82;81.18;99311.53;10506946;28;20041;-72
2021/06/30 05:56:07;;;;;;;1.95;1.85;;;;;;;16.97;81.49;99307.00;10506890;28;20041;-73
2021/06/30 06:01:14;;;;;;;3.47;1.60;;;;;;;17.02;79.88;99308.34;10507461;28;20417;-71
2021/06/30 06:06:20;;;;;;;3.03;1.77;;;;;;;17.02;80.60;99303.06;10505750;28;20047;-70
2021/06/30 06:11:27;;;;;;;2.15;2.00;;;;;;;17.08;78.14;99302.59;10505153;28;20044;-69
2021/06/30 06:16:33;;;;;;;3.00;1.40;;;;;;;16.98;78.38;99293.59;10504420;28;20041;-70
2021/06/30 06:21:39;;;;;;;2.95;1.83;;;;;;;17.10;77.94;99294.56;10504671;28;20364;-70
2021/06/30 06:26:48;;;;;;;2.13;1.73;;;;;;;17.13;77.57;99297.84;10503987;28;20032;-71
2021/06/30 06:31:55;;;;;;;1.80;1.63;;;;;;;17.21;77.40;99294.63;10502901;28;20032;-71
2021/06/30 06:37:02;;;;;;;1.52;1.40;;;;;;;17.22;77.68;99299.00;10503062;28;20041;-71
2021/06/30 06:42:11;;;;;;;4.18;1.80;;;;;;;17.24;77.47;99294.41;10502727;28;20040;-70
2021/06/30 06:47:18;;;;;;;3.33;1.60;;;;;;;17.27;76.63;99317.28;10484564;28;20079;-72
2021/06/30 06:52:24;;;;;;;3.38;1.58;;;;;;;17.22;77.00;99303.44;10502149;28;20498;-71
2021/06/30 06:57:31;;;;;;;2.28;2.08;;;;;;;17.26;78.09;99321.72;10485895;28;20041;-69
2021/06/30 07:02:37;;;;;;;3.20;2.05;;;;;;;17.17;78.64;99321.50;10500927;28;20052;-71
2021/06/30 07:07:45;;;;;;;4.65;1.90;;;;;;;17.20;78.59;99321.31;10501809;28;20079;-70
2021/06/30 07:12:52;;;;;;;3.40;2.00;;;;;;;17.25;78.29;99325.31;10501985;28;20044;-70
2021/06/30 07:17:58;;;;;;;2.30;2.10;;;;;;;17.31;77.71;99329.34;10501205;28;20037;-71
2021/06/30 07:23:05;;;;;;;4.55;2.50;;;;;;;17.47;77.39;99329.13;10502160;28;20040;-71
2021/06/30 07:28:11;;;;;;;2.40;1.90;;;;;;;17.47;77.16;99324.66;10501411;28;20036;-71
2021/06/30 07:33:18;;;;;;;2.35;2.00;;;;;;;17.53;76.92;99326.03;10500132;28;20040;-72
2021/06/30 07:38:26;;;;;;;2.25;1.80;;;;;;;17.57;75.95;99323.03;10483429;28;20086;-71
2021/06/30 07:43:32;;;;;;;2.80;1.85;;;;;;;17.59;75.51;99331.75;10484343;28;20051;-73
2021/06/30 07:48:34;;;;;;;2.25;1.80;;;;;;;17.63;75.21;99330.56;10500992;28;20067;-73
2021/06/30 07:53:35;;;;;;;1.88;1.60;;;;;;;17.82;74.37;99323.97;10500748;28;20049;-72
2021/06/30 07:58:38;;;;;;;1.70;1.60;;;;;;;17.94;74.29;99323.06;10483646;28;20102;-73
2021/06/30 08:03:42;;;;;;;1.92;1.60;;;;;;;18.23;72.72;99320.03;10501553;28;20033;-72
2021/06/30 08:08:44;;;;;;;2.35;1.23;;;;;;;18.35;72.00;99316.47;10500573;28;20044;-73
2021/06/30 08:13:45;;;;;;;1.88;1.40;;;;;;;18.44;72.41;99309.63;10499879;28;20036;-72
2021/06/30 08:18:48;;;;;;;3.67;1.48;;;;;;;18.33;72.50;99323.75;10500015;28;20102;-73
2021/06/30 08:23:51;;;;;;;2.28;1.60;;;;;;;18.38;71.47;99321.56;10499320;28;20052;-72
2021/06/30 08:28:53;;;;;;;2.13;1.33;;;;;;;18.55;70.77;99312.28;10500027;28;20053;-73
2021/06/30 08:33:54;;;;;;;2.20;1.58;;;;;;;18.67;70.37;99322.00;10498811;28;20555;-73
2021/06/30 08:38:56;;;;;;;1.75;1.48;;;;;;;18.75;67.99;99332.09;10498790;28;20098;-72
2021/06/30 08:43:58;;;;;;;2.83;1.40;;;;;;;18.73;69.50;99337.56;10499868;28;20037;-73
2021/06/30 08:49:03;;;;;;;1.60;1.50;;;;;;;18.69;69.74;99333.44;10498640;28;20044;-72
2021/06/30 08:54:10;;;;;;;1.50;1.40;;;;;;;18.72;69.89;99342.97;10499170;28;20097;-73
2021/06/30 08:59:12;;;;;;;2.22;1.42;;;;;;;18.94;69.83;99339.53;10499997;28;20048;-72
2021/06/30 09:04:13;;;;;;;2.72;1.35;;;;;;;19.33;66.37;99343.56;10499260;28;20094;-73
2021/06/30 09:09:16;;;;;;;2.55;1.35;;;;;;;19.40;67.38;99350.09;10498730;28;20052;-73
2021/06/30 09:14:24;;;;;;;2.40;1.30;;;;;;;19.49;66.31;99357.38;10481472;28;20045;-73
2021/06/30 09:19:45;;;;;;;1.42;1.20;;;;;;;19.73;65.03;99359.91;10498391;28;20048;-75
2021/06/30 09:24:48;;;;;;;1.33;1.23;;;;;;;19.78;63.75;99363.06;10498024;28;20044;-73
2021/06/30 09:30:04;;;;;;;4.57;1.30;;;;;;;19.85;64.13;99371.44;10479756;28;20063;-74
2021/06/30 09:35:20;;;;;;;1.23;1.00;;;;;;;19.71;64.96;99371.69;10482474;23;20386;-73
2021/06/30 09:40:39;;;;;;;1.20;1.10;;;;;;;19.72;64.08;99373.38;10480841;28;20511;-73
2021/06/30 09:45:44;;;;;;;2.00;0.90;;;;;;;19.89;62.87;99380.88;10496306;28;20115;-72
2021/06/30 09:50:45;;;;;;;1.25;0.95;;;;;;;20.19;63.86;99382.88;10502097;28;20044;-76
2021/06/30 09:55:47;;;;;;;2.38;1.00;;;;;;;20.11;64.97;99391.50;10503598;28;20044;-74
2021/06/30 10:00:49;;;;;;;1.67;0.90;;;;;;;20.38;62.55;99382.22;10503147;28;20079;-73
2021/06/30 10:05:50;;;;;;;1.00;0.90;;;;;;;20.35;62.58;99391.31;10485092;28;20494;-73
2021/06/30 10:11:09;;;;;;;0.82;0.82;;;;;;;20.86;63.05;99393.31;10502769;28;20051;-74
2021/06/30 10:16:12;;;;;;;2.15;0.80;;;;;;;21.41;59.95;99382.41;10502721;28;20094;-73
2021/06/30 10:21:16;;;;;;;1.30;0.60;;;;;;;21.76;59.02;99381.13;10485596;28;20426;-74
2021/06/30 10:26:20;;;;;;;0.73;0.70;;;;;;;21.66;59.77;99379.28;10484484;28;20048;-73
2021/06/30 10:31:22;;;;;;;1.67;0.70;;;;;;;21.91;59.79;99386.00;10484118;28;20064;-73
2021/06/30 10:36:42;;;;;;;1.33;0.50;;;;;;;22.37;55.22;99386.38;10484033;28;20047;-73
2021/06/30 10:41:51;;;;;;;0.55;0.55;;;;;;;22.57;54.64;99379.19;10501460;28;20040;-73
2021/06/30 10:46:54;;;;;;;0.60;0.60;;;;;;;22.74;55.28;99380.31;10501667;28;20066;-72
2021/06/30 10:51:58;;;;;;;2.85;0.50;;;;;;;22.39;54.99;99381.72;10483088;28;20052;-72
2021/06/30 10:57:19;;;;;;;1.85;0.52;;;;;;;22.31;55.22;99394.94;10501307;28;20436;-72
2021/06/30 11:02:21;;;;;;;0.50;0.30;;;;;;;22.75;55.38;99382.00;10483080;28;20078;-73
2021/06/30 11:07:34;;;;;;;0.40;0.40;;;;;;;23.14;53.25;99380.13;10485918;28;20087;-71
2021/06/30 11:12:56;;;;;;;0.82;0.40;;;;;;;23.09;52.17;99375.22;10482621;28;20094;-72
2021/06/30 11:17:58;;;;;;;0.70;0.52;;;;;;;22.98;52.60;99374.53;10481825;28;20048;-72
2021/06/30 11:23:40;;;;;;;0.75;0.43;;;;;;;23.83;51.35;99366.34;10500062;28;20051;-72
2021/06/30 11:28:41;;;;;;;5.53;0.50;;;;;;;23.34;51.82;99378.25;10371842;28;20435;-71
2021/06/30 11:34:12;;;;;;;0.90;0.35;;;;;;;23.45;52.49;99377.22;10371872;28;20061;-72
2021/06/30 11:39:17;;;;;;;1.30;0.52;;;;;;;23.59;51.99;99392.81;10371922;28;20049;-71
2021/06/30 11:44:21;;;;;;;1.27;0.40;;;;;;;23.69;52.07;99384.81;10371610;28;20046;-71
2021/06/30 11:49:23;;;;;;;1.00;0.50;;;;;;;24.23;50.40;99380.38;10372082;28;20054;-71
2021/06/30 11:54:27;;;;;;;0.85;0.50;;;;;;;24.35;49.09;99381.84;10371200;28;20049;-71
2021/06/30 11:59:29;;;;;;;0.50;0.40;;;;;;;25.03;48.17;99384.81;10388583;28;20056;-71
2021/06/30 12:04:31;;;;;;;1.15;0.45;;;;;;;24.81;48.66;99393.38;10498343;28;20494;-71
2021/06/30 12:09:34;;;;;;;0.82;0.50;;;;;;;23.93;52.31;99387.75;10498710;28;20527;-71
2021/06/30 12:14:42;;;;;;;1.33;0.40;;;;;;;23.37;52.69;99391.34;10497685;28;20037;-71
2021/06/30 12:19:46;;;;;;;1.20;0.50;;;;;;;23.10;52.62;99406.38;10480305;28;20051;-70
2021/06/30 12:24:52;;;;;;;1.13;0.47;;;;;;;22.39;53.79;99401.31;10497949;28;20418;-70
2021/06/30 12:29:57;;;;;;;0.60;0.60;;;;;;;21.75;57.13;99406.22;10498136;28;20044;-71
2021/06/30 12:35:01;;;;;;;1.83;0.68;;;;;;;21.26;58.33;99405.09;10496978;28;20040;-71
2021/06/30 12:40:07;;;;;;;1.48;0.52;;;;;;;21.04;56.87;99406.09;10496959;28;20098;-70
2021/06/30 12:45:11;;;;;;;0.98;0.50;;;;;;;20.97;57.24;99397.72;10498070;28;20045;-70
2021/06/30 12:50:14;;;;;;;2.38;0.40;;;;;;;21.17;56.89;99396.88;10497837;28;20447;-69
2021/06/30 12:55:15;;;;;;;2.05;0.57;;;;;;;21.55;55.96;99408.78;10479074;28;20037;-70
2021/06/30 13:00:19;;;;;;;1.52;0.68;;;;;;;22.21;54.68;99394.94;10496831;28;20060;-70
2021/06/30 13:05:25;;;;;;;1.23;0.43;;;;;;;22.55;54.12;99406.13;10496777;28;20049;-70
2021/06/30 13:10:26;;;;;;;0.63;0.30;;;;;;;22.48;53.89;99396.94;10497387;28;20048;-70
2021/06/30 13:15:28;;;;;;;1.83;0.40;;;;;;;22.26;55.31;99394.53;10480312;28;20114;-70
2021/06/30 13:20:30;;;;;;;1.95;0.30;;;;;;;22.01;54.32;99398.53;10496666;28;20045;-71
2021/06/30 13:25:51;;;;;;;1.08;0.30;;;;;;;21.66;55.83;99391.81;10502389;28;20111;-70
2021/06/30 13:36:14;;;;;;;1.08;0.38;;;;;;;21.76;55.82;99387.34;10506243;28;20037;-71
2021/06/30 13:41:20;;;;;;;0.85;0.45;;;;;;;21.98;56.29;99388.94;10506936;28;20467;-70
2021/06/30 13:46:22;;;;;;;1.10;0.32;;;;;;;22.14;55.29;99391.97;10505363;28;20041;-71
2021/06/30 13:51:24;;;;;;;0.75;0.40;;;;;;;22.30;54.40;99374.53;10504719;28;20048;-71
2021/06/30 13:56:25;;;;;;;0.77;0.30;;;;;;;22.99;52.76;99385.13;10505266;28;20048;-70
2021/06/30 14:01:27;;;;;;;2.03;0.43;;;;;;;23.11;52.67;99380.44;10486751;28;20060;-70
2021/06/30 14:06:30;;;;;;;2.45;0.43;;;;;;;22.81;53.19;99384.13;10485893;28;20044;-70
2021/06/30 14:11:31;;;;;;;1.20;0.30;;;;;;;22.55;51.92;99390.03;10503524;28;20408;-70
2021/06/30 14:16:33;;;;;;;3.13;0.57;;;;;;;22.38;49.59;99388.91;10504649;28;20036;-70
2021/06/30 14:21:35;;;;;;;0.95;0.30;;;;;;;22.92;48.10;99384.81;10504588;28;20045;-70
2021/06/30 14:26:37;;;;;;;0.47;0.40;;;;;;;22.95;49.61;99385.53;10486051;28;20102;-70
2021/06/30 14:31:38;;;;;;;1.10;0.40;;;;;;;23.45;48.69;99374.53;10503311;28;20516;-70
2021/06/30 14:36:40;;;;;;;0.73;0.40;;;;;;;23.58;51.00;99375.91;10502285;28;20041;-70
2021/06/30 14:41:42;;;;;;;1.40;0.30;;;;;;;23.47;49.35;99372.56;10503049;28;20051;-70
2021/06/30 14:46:43;;;;;;;1.08;0.25;;;;;;;23.15;49.72;99379.13;10503449;28;20094;-70
2021/06/30 14:51:45;;;;;;;1.30;0.45;;;;;;;23.07;50.74;99384.41;10502067;28;20071;-69
2021/06/30 14:56:47;;;;;;;1.13;0.52;;;;;;;23.07;51.21;99387.09;10501775;28;20061;-70
2021/06/30 15:01:49;;;;;;;0.60;0.60;;;;;;;23.39;50.03;99384.88;10500795;28;20386;-69
2021/06/30 15:06:50;;;;;;;3.83;0.50;;;;;;;23.17;51.18;99393.25;10501040;28;20090;-70
2021/06/30 15:11:54;;;;;;;1.33;0.40;;;;;;;22.71;50.71;99399.34;10500997;28;20056;-69
2021/06/30 15:16:56;;;;;;;2.60;0.40;;;;;;;22.69;52.02;99401.31;10502704;28;20048;-69
2021/06/30 15:21:57;;;;;;;0.47;0.40;;;;;;;22.43;52.27;99396.53;10501263;28;20076;-69
2021/06/30 15:27:00;;;;;;;1.05;0.50;;;;;;;22.44;52.39;99397.34;10484553;28;20044;-69
2021/06/30 15:32:02;;;;;;;0.70;0.30;;;;;;;22.45;53.29;99399.06;10482988;28;20090;-69
2021/06/30 15:37:04;;;;;;;2.00;0.60;;;;;;;22.31;53.01;99393.16;10512904;22;20036;-74
2021/06/30 15:42:05;;;;;;;1.05;0.40;;;;;;;22.08;52.67;99399.66;10541251;28;20538;-73
2021/06/30 15:47:07;;;;;;;1.60;0.40;;;;;;;22.12;53.02;99401.97;10541648;28;20040;-73
2021/06/30 15:52:09;;;;;;;0.40;0.40;;;;;;;22.10;52.69;99395.03;10541049;28;20413;-74
2021/06/30 15:57:11;;;;;;;2.08;0.75;;;;;;;21.90;53.05;99380.75;10541002;28;20097;-75
2021/06/30 16:02:13;;;;;;;1.27;0.43;;;;;;;22.25;51.60;99388.31;10540246;28;20592;-75
2021/06/30 16:07:15;;;;;;;0.60;0.40;;;;;;;22.74;51.31;99391.03;10521808;28;20468;-73
2021/06/30 16:12:16;;;;;;;1.10;0.35;;;;;;;23.56;49.37;99387.78;10538602;28;20105;-73
2021/06/30 16:17:18;;;;;;;1.00;0.30;;;;;;;23.89;47.68;99381.00;10536285;28;20036;-74
2021/06/30 16:22:20;;;;;;;3.10;0.40;;;;;;;23.36;49.49;99387.84;10517149;28;20058;-74
2021/06/30 16:27:21;;;;;;;0.93;0.40;;;;;;;22.88;50.93;99390.59;10536262;28;20047;-72
2021/06/30 16:32:23;;;;;;;1.13;0.40;;;;;;;23.39;51.13;99384.88;10539262;28;20051;-73
2021/06/30 16:37:25;;;;;;;0.60;0.50;;;;;;;23.04;51.83;99380.16;10539246;28;20408;-73
2021/06/30 16:42:27;;;;;;;2.08;0.52;;;;;;;23.09;50.47;99380.56;10539387;28;20044;-74
2021/06/30 16:47:29;;;;;;;0.90;0.50;;;;;;;23.01;51.42;99379.59;10539406;28;20115;-75
2021/06/30 16:52:31;;;;;;;0.52;0.50;;;;;;;22.67;52.03;99386.25;10539630;28;20489;-73
2021/06/30 16:57:34;;;;;;;0.75;0.50;;;;;;;22.54;50.96;99390.19;10523399;28;20060;-73
2021/06/30 17:02:37;;;;;;;1.42;0.50;;;;;;;22.37;53.27;99384.53;10548364;28;20048;-73
2021/06/30 17:07:38;;;;;;;0.63;0.38;;;;;;;22.48;51.06;99383.56;10547998;28;20055;-74
2021/06/30 17:12:40;;;;;;;0.68;0.40;;;;;;;22.30;51.84;99383.41;10548059;28;20046;-73
2021/06/30 17:17:42;;;;;;;1.65;0.40;;;;;;;22.03;53.30;99385.84;10547598;28;20085;-73
2021/06/30 17:22:44;;;;;;;0.90;0.50;;;;;;;22.09;54.10;99385.28;10529155;28;20097;-73
2021/06/30 17:27:47;;;;;;;1.20;0.60;;;;;;;21.88;53.29;99385.41;10547794;28;20050;-74
2021/06/30 17:32:53;;;;;;;0.60;0.50;;;;;;;21.93;53.65;99396.53;10528356;28;20075;-73
2021/06/30 17:37:57;;;;;;;1.58;0.60;;;;;;;21.97;53.60;99392.63;10547170;28;20040;-74
2021/06/30 17:42:59;;;;;;;2.00;0.80;;;;;;;21.94;55.00;99394.72;10548725;28;20457;-75
2021/06/30 17:48:03;;;;;;;1.80;0.63;;;;;;;21.95;54.32;99405.25;10547608;28;20040;-74
2021/06/30 17:53:05;;;;;;;0.80;0.60;;;;;;;22.01;53.44;99415.44;10549391;28;20139;-74
2021/06/30 17:58:07;;;;;;;1.08;0.40;;;;;;;21.92;53.78;99417.09;10548556;28;20359;-74
2021/06/30 18:03:08;;;;;;;1.23;0.60;;;;;;;21.55;56.73;99426.66;10546323;28;20485;-74
2021/06/30 18:08:10;;;;;;;1.88;0.65;;;;;;;21.74;54.53;99431.28;10528432;28;20032;-74
2021/06/30 18:13:12;;;;;;;1.48;0.60;;;;;;;21.55;55.63;99432.84;10546928;28;20048;-73
2021/06/30 18:18:14;;;;;;;0.90;0.75;;;;;;;21.02;55.99;99451.63;10528382;28;20040;-73
2021/06/30 18:23:16;;;;;;;0.82;0.70;;;;;;;20.96;56.61;99453.97;10545959;28;20052;-73
2021/06/30 18:28:17;;;;;;;0.70;0.70;;;;;;;20.61;58.94;99461.28;10527299;28;20046;-74
2021/06/30 18:33:19;;;;;;;1.35;0.60;;;;;;;20.53;59.67;99470.88;10526878;28;20048;-74
2021/06/30 18:38:20;;;;;;;1.75;0.60;;;;;;;20.31;58.91;99469.94;10545336;28;20456;-74
2021/06/30 18:43:22;;;;;;;3.30;0.60;;;;;;;20.11;58.61;99476.88;10545553;28;20097;-73
2021/06/30 18:48:23;;;;;;;0.90;0.50;;;;;;;19.93;58.71;99480.19;10527705;28;20489;-75
2021/06/30 18:53:26;;;;;;;0.50;0.50;;;;;;;19.73;59.44;99487.91;10545855;28;20048;-73
2021/06/30 18:58:33;;;;;;;1.83;0.85;;;;;;;19.34;60.97;99498.00;10526985;28;20134;-74
2021/06/30 19:03:34;;;;;;;1.33;0.85;;;;;;;19.25;61.64;99498.69;10544911;28;20520;-74
2021/06/30 19:08:36;;;;;;;1.23;0.60;;;;;;;19.10;62.41;99508.72;10544759;28;20036;-74
2021/06/30 19:13:38;;;;;;;1.48;0.60;;;;;;;18.95;63.84;99507.22;10545962;28;20058;-74
2021/06/30 19:18:40;;;;;;;1.80;0.63;;;;;;;18.85;64.21;99512.34;10545891;28;20109;-73
2021/06/30 19:23:42;;;;;;;0.85;0.60;;;;;;;18.51;65.75;99515.78;10544809;28;20405;-74
2021/06/30 19:28:44;;;;;;;0.70;0.70;;;;;;;18.58;66.11;99517.00;10545237;28;20099;-74
2021/06/30 19:33:46;;;;;;;0.63;0.60;;;;;;;18.58;65.27;99519.69;10527269;28;20074;-74
2021/06/30 19:38:47;;;;;;;1.80;0.70;;;;;;;18.51;65.63;99526.44;10546392;28;20047;-74
2021/06/30 19:43:49;;;;;;;2.03;0.80;;;;;;;18.34;66.86;99532.97;10545599;28;20040;-71
2021/06/30 19:48:51;;;;;;;1.58;0.90;;;;;;;18.02;68.26;99540.56;10544373;28;20043;-71
2021/06/30 19:53:53;;;;;;;1.55;0.98;;;;;;;17.96;68.93;99552.47;10545575;28;20064;-71
2021/06/30 19:58:54;;;;;;;1.70;1.05;;;;;;;17.84;69.33;99548.00;10544076;28;20056;-70
2021/06/30 20:03:56;;;;;;;2.15;1.10;;;;;;;17.78;69.60;99551.09;10544594;28;20048;-71
2021/06/30 20:08:57;;;;;;;0.90;0.90;;;;;;;17.87;69.93;99543.31;10544821;28;20519;-71
2021/06/30 20:14:01;;;;;;;1.63;0.93;;;;;;;17.82;69.53;99541.94;10545095;28;20515;-70
2021/06/30 20:19:03;;;;;;;1.33;0.95;;;;;;;17.81;69.28;99532.28;10547870;28;20035;-72
2021/06/30 20:24:05;;;;;;;0.82;0.82;;;;;;;17.67;70.14;99529.72;10530320;28;20421;-71
2021/06/30 20:29:07;;;;;;;1.67;0.80;;;;;;;17.65;69.36;99525.31;10542779;28;20075;-71
2021/06/30 20:34:08;;;;;;;1.63;1.10;;;;;;;17.75;68.24;99522.06;10543139;28;20042;-70
2021/06/30 20:39:11;;;;;;;1.20;0.90;;;;;;;17.95;66.67;99513.56;10544151;28;20044;-71
2021/06/30 20:44:13;;;;;;;4.20;0.95;;;;;;;17.87;66.45;99507.91;10544390;28;20050;-71
2021/06/30 20:49:15;;;;;;;0.82;0.70;;;;;;;18.03;65.60;99489.09;10544913;28;20083;-71
2021/06/30 20:54:16;;;;;;;0.90;0.90;;;;;;;17.99;64.95;99496.41;10545437;28;20044;-71
2021/06/30 20:59:18;;;;;;;3.63;1.15;;;;;;;17.92;64.90;99495.16;10542798;28;20059;-71
2021/06/30 21:04:20;;;;;;;1.58;0.90;;;;;;;17.99;64.14;99490.25;10542026;28;20040;-70
2021/06/30 21:09:21;;;;;;;1.23;0.80;;;;;;;18.09;64.01;99493.94;10542311;28;20119;-71
2021/06/30 21:14:24;;;;;;;3.30;0.98;;;;;;;18.15;63.20;99498.84;10542629;28;20078;-70
2021/06/30 21:19:25;;;;;;;1.15;0.85;;;;;;;18.07;62.55;99495.88;10543514;28;20047;-70
2021/06/30 21:24:27;;;;;;;0.85;0.60;;;;;;;18.07;62.18;99490.56;10542051;28;20039;-70
2021/06/30 21:29:28;;;;;;;1.27;0.60;;;;;;;18.05;62.68;99482.69;10541886;28;20119;-72
2021/06/30 21:34:32;;;;;;;1.50;0.73;;;;;;;18.01;63.67;99485.66;10540796;22;20517;-67
2021/06/30 21:39:33;;;;;;;2.05;0.75;;;;;;;17.95;62.66;99476.31;10474782;28;20063;-68
2021/06/30 21:44:35;;;;;;;1.25;0.68;;;;;;;17.76;64.42;99486.56;10497609;28;20045;-66
2021/06/30 21:49:37;;;;;;;0.82;0.60;;;;;;;17.74;64.50;99491.13;10505578;28;20040;-68
2021/06/30 21:54:38;;;;;;;0.65;0.57;;;;;;;17.72;63.18;99501.00;10505839;28;20517;-67
2021/06/30 21:59:40;;;;;;;1.13;0.60;;;;;;;17.69;63.57;99503.84;10486540;28;20051;-67
2021/06/30 22:04:42;;;;;;;0.88;0.35;;;;;;;17.82;61.92;99496.75;10505193;28;20041;-68
2021/06/30 22:09:44;;;;;;;1.10;0.40;;;;;;;17.89;61.61;99498.03;10504099;28;20490;-67
2021/06/30 22:14:45;;;;;;;3.13;0.50;;;;;;;17.91;61.12;99504.09;10503507;28;20040;-66
2021/06/30 22:19:47;;;;;;;0.20;0.20;;;;;;;17.87;61.16;99503.44;10503690;28;20048;-68
2021/06/30 22:24:49;;;;;;;0.30;0.30;;;;;;;17.83;61.51;99501.97;10504275;28;20059;-67
2021/06/30 22:29:50;;;;;;;1.33;0.32;;;;;;;17.80;61.50;99501.34;10503750;28;20059;-67
2021/06/30 22:34:52;;;;;;;0.50;0.20;;;;;;;17.80;61.06;99504.00;10504308;28;20044;-69
2021/06/30 22:39:59;;;;;;;0.57;0.40;;;;;;;17.79;61.01;99500.47;10503158;28;20053;-67
2021/06/30 22:45:02;;;;;;;0.50;0.30;;;;;;;17.76;61.08;99505.19;10504282;28;20045;-67
2021/06/30 22:50:06;;;;;;;0.30;0.30;;;;;;;17.63;61.31;99502.47;10503289;28;20055;-67
2021/06/30 22:55:09;;;;;;;1.45;0.40;;;;;;;17.61;61.30;99499.06;10502984;28;20131;-67
2021/06/30 23:00:19;;;;;;;1.75;0.38;;;;;;;17.52;61.77;99502.34;10502737;28;20525;-68
2021/06/30 23:05:21;;;;;;;0.65;0.30;;;;;;;17.46;61.94;99494.81;10502668;28;20044;-69
2021/06/30 23:10:22;;;;;;;1.02;0.40;;;;;;;17.48;61.59;99485.78;10501940;28;20037;-67
2021/06/30 23:15:24;;;;;;;0.98;0.40;;;;;;;17.47;62.13;99486.72;10501639;28;20052;-67
2021/06/30 23:20:26;;;;;;;1.17;0.30;;;;;;;17.45;61.95;99486.00;10503368;28;20036;-68
2021/06/30 23:25:27;;;;;;;0.50;0.30;;;;;;;17.44;62.03;99489.59;10501606;28;20056;-67
2021/06/30 23:30:29;;;;;;;0.52;0.25;;;;;;;17.40;62.31;99491.63;10500991;28;20051;-67
2021/06/30 23:35:31;;;;;;;0.47;0.28;;;;;;;17.25;63.22;99494.47;10500808;28;20152;-67
2021/06/30 23:40:32;;;;;;;1.33;0.60;;;;;;;17.40;62.40;99490.78;10500832;28;20043;-68
2021/06/30 23:45:34;;;;;;;0.30;0.30;;;;;;;17.27;62.71;99497.91;10500788;28;20049;-67